createdAt,value
2022-08-21T02:02:57.178Z,99643.96
2022-08-21T02:05:29.807Z,99641.41
2022-08-21T02:08:01.930Z,99645.58
2022-08-21T02:10:35.444Z,99647.70
2022-08-21T02:13:08.399Z,99649.02
2022-08-21T02:15:46.029Z,99647.55
2022-08-21T02:18:18.324Z,99644.14
2022-08-21T02:20:55.855Z,99637.49
2022-08-21T02:23:28.550Z,99635.39
2022-08-21T02:26:01.474Z,99634.48
2022-08-21T02:28:33.726Z,99629.43
2022-08-21T02:31:06.853Z,99631.42
2022-08-21T02:33:40.079Z,99624.06
2022-08-21T02:36:14.976Z,99624.80
2022-08-21T02:38:47.150Z,99628.98
2022-08-21T02:41:22.348Z,99631.73
2022-08-21T02:43:54.408Z,99629.70
2022-08-21T02:46:26.587Z,99627.19
2022-08-21T02:48:59.032Z,99622.10
2022-08-21T02:51:32.054Z,99619.59
2022-08-21T02:54:04.401Z,99620.16
2022-08-21T02:56:37.627Z,99616.61
2022-08-21T02:59:09.729Z,99608.65
2022-08-21T03:01:41.819Z,99607.77
2022-08-21T03:04:13.989Z,99611.11
2022-08-21T03:06:46.397Z,99605.25
2022-08-21T03:09:18.572Z,99606.33
2022-08-21T03:11:50.818Z,99602.11
2022-08-21T03:14:22.924Z,99601.58
2022-08-21T03:16:55.039Z,99600.48
2022-08-21T03:19:27.455Z,99600.23
2022-08-21T03:21:59.520Z,99600.09
2022-08-21T03:24:31.564Z,99598.73
2022-08-21T03:27:04.643Z,99603.02
2022-08-21T03:29:42.069Z,99602.86
2022-08-21T03:32:14.355Z,99607.69
2022-08-21T03:34:46.518Z,99606.45
2022-08-21T03:37:18.838Z,99610.21
2022-08-21T03:39:51.031Z,99602.20
2022-08-21T03:42:23.356Z,99600.92
2022-08-21T03:44:55.893Z,99601.37
2022-08-21T03:47:28.302Z,99603.94
2022-08-21T03:50:00.517Z,99602.02
2022-08-21T03:52:32.731Z,99605.20
2022-08-21T03:55:05.000Z,99605.83
2022-08-21T03:57:37.064Z,99608.17
2022-08-21T04:00:12.923Z,99612.05
2022-08-21T04:02:45.529Z,99612.76
2022-08-21T04:05:28.224Z,99610.35
2022-08-21T04:08:02.484Z,99614.04
2022-08-21T04:10:39.028Z,99613.91
2022-08-21T04:13:11.616Z,99616.13
2022-08-21T04:15:44.491Z,99618.38
2022-08-21T04:18:17.265Z,99622.21
2022-08-21T04:20:51.621Z,99619.98
2022-08-21T04:23:25.451Z,99613.50
2022-08-21T04:25:58.669Z,99613.88
2022-08-21T04:28:31.369Z,99611.79
2022-08-21T04:31:03.859Z,99609.65
2022-08-21T04:33:36.019Z,99605.83
2022-08-21T04:36:09.132Z,99605.02
2022-08-21T04:38:44.681Z,99607.38
2022-08-21T04:41:17.168Z,99606.48
2022-08-21T04:43:57.681Z,99601.22
2022-08-21T04:46:29.888Z,99600.24
2022-08-21T04:49:02.750Z,99596.89
2022-08-21T04:51:39.503Z,99594.36
2022-08-21T04:54:15.656Z,99594.38
2022-08-21T04:56:51.994Z,99594.91
2022-08-21T04:59:26.667Z,99596.80
2022-08-21T05:01:59.187Z,99596.52
2022-08-21T05:04:34.082Z,99594.50
2022-08-21T05:07:09.796Z,99600.70
2022-08-21T05:09:42.665Z,99599.45
2022-08-21T05:12:15.398Z,99604.73
2022-08-21T05:14:48.143Z,99601.95
2022-08-21T05:17:20.327Z,99598.89
2022-08-21T05:19:53.357Z,99597.30
2022-08-21T05:22:26.590Z,99599.61
2022-08-21T05:25:00.834Z,99605.23
2022-08-21T05:27:33.133Z,99608.40
2022-08-21T05:30:08.559Z,99602.38
2022-08-21T05:32:41.012Z,99606.15
2022-08-21T05:35:13.219Z,99603.56
2022-08-21T05:37:45.292Z,99594.96
2022-08-21T05:40:21.627Z,99591.54
2022-08-21T05:42:57.653Z,99590.75
2022-08-21T05:45:42.850Z,99592.90
2022-08-21T05:48:19.883Z,99595.08
2022-08-21T05:50:53.440Z,99595.92
2022-08-21T05:53:27.007Z,99600.46
2022-08-21T05:55:59.231Z,99599.36
2022-08-21T05:58:32.260Z,99601.31
2022-08-21T06:01:06.007Z,99607.11
2022-08-21T06:03:41.786Z,99600.38
2022-08-21T06:06:14.004Z,99600.15
2022-08-21T06:08:46.670Z,99596.80
2022-08-21T06:11:20.767Z,99599.34
2022-08-21T06:13:53.236Z,99603.04
2022-08-21T06:16:25.908Z,99605.74
2022-08-21T06:19:02.144Z,99605.51
2022-08-21T06:21:35.031Z,99610.29
2022-08-21T06:24:09.349Z,99614.42
2022-08-21T06:26:41.472Z,99613.70
2022-08-21T06:29:17.497Z,99611.52
2022-08-21T06:31:50.684Z,99606.98
2022-08-21T06:34:22.891Z,99606.22
2022-08-21T06:36:55.271Z,99605.80
2022-08-21T06:39:32.352Z,99606.38
2022-08-21T06:42:05.217Z,99610.29
2022-08-21T06:44:42.715Z,99612.60
2022-08-21T06:47:15.700Z,99610.85
2022-08-21T06:49:48.075Z,99610.00
2022-08-21T06:52:21.712Z,99612.38
2022-08-21T06:54:53.806Z,99616.25
2022-08-21T06:57:26.763Z,99612.55
2022-08-21T06:59:59.180Z,99612.97
2022-08-21T07:02:31.427Z,99613.26
2022-08-21T07:05:09.001Z,99609.98
2022-08-21T07:07:50.552Z,99613.59
2022-08-21T07:10:23.094Z,99615.20
2022-08-21T07:13:00.880Z,99615.91
2022-08-21T07:15:33.975Z,99611.84
2022-08-21T07:18:06.632Z,99612.53
2022-08-21T07:20:39.284Z,99618.38
2022-08-21T07:23:14.099Z,99611.11
2022-08-21T07:25:46.187Z,99607.82
2022-08-21T07:28:18.296Z,99606.73
2022-08-21T07:30:55.422Z,99603.25
2022-08-21T07:33:29.227Z,99601.08
2022-08-21T07:36:03.124Z,99598.56
2022-08-21T07:38:35.519Z,99598.23
2022-08-21T07:41:15.612Z,99598.04
2022-08-21T07:43:48.396Z,99598.52
2022-08-21T07:46:20.621Z,99596.73
2022-08-21T07:48:53.632Z,99592.30
2022-08-21T07:51:31.194Z,99590.70
2022-08-21T07:54:03.986Z,99582.00
2022-08-21T07:56:37.070Z,99581.97
2022-08-21T07:59:09.413Z,99576.53
2022-08-21T08:01:41.749Z,99576.28
2022-08-21T08:04:14.065Z,99577.20
2022-08-21T08:06:47.136Z,99574.52
2022-08-21T08:09:19.491Z,99575.21
2022-08-21T08:11:51.661Z,99569.90
2022-08-21T08:14:26.490Z,99569.71
2022-08-21T08:17:03.650Z,99571.25
2022-08-21T08:19:35.746Z,99572.73
2022-08-21T08:22:16.851Z,99571.54
2022-08-21T08:24:49.630Z,99571.36
2022-08-21T08:27:22.399Z,99563.96
2022-08-21T08:29:54.551Z,99570.36
2022-08-21T08:32:27.180Z,99573.70
2022-08-21T08:34:59.330Z,99571.84
2022-08-21T08:37:34.556Z,99575.30
2022-08-21T08:40:08.492Z,99572.54
2022-08-21T08:42:41.555Z,99568.27
2022-08-21T08:45:15.855Z,99565.42
2022-08-21T08:47:51.948Z,99564.70
2022-08-21T08:50:29.806Z,99564.14
2022-08-21T08:53:06.389Z,99561.40
2022-08-21T08:55:40.414Z,99556.41
2022-08-21T08:58:14.159Z,99556.95
2022-08-21T09:00:48.715Z,99562.02
2022-08-21T09:03:22.780Z,99568.07
2022-08-21T09:06:02.533Z,99563.52
2022-08-21T09:08:51.090Z,99565.34
2022-08-21T09:11:34.673Z,99568.96
2022-08-21T09:14:16.869Z,99568.06
2022-08-21T09:16:56.216Z,99563.91
2022-08-21T09:19:53.158Z,99561.03
2022-08-21T09:22:33.166Z,99561.92
2022-08-21T09:25:14.455Z,99561.59
2022-08-21T09:27:46.572Z,99562.65
2022-08-21T09:30:19.503Z,99559.45
2022-08-21T09:32:51.683Z,99557.27
2022-08-21T09:35:26.243Z,99559.88
2022-08-21T09:38:02.132Z,99558.91
2022-08-21T09:40:40.041Z,99555.44
2022-08-21T09:43:27.155Z,99558.95
2022-08-21T09:46:12.883Z,99557.94
2022-08-21T09:48:51.274Z,99557.33
2022-08-21T09:51:27.136Z,99549.38
2022-08-21T09:54:12.537Z,99554.42
2022-08-21T09:57:15.384Z,99549.00
2022-08-21T09:59:49.648Z,99550.21
2022-08-21T10:02:32.348Z,99548.06
2022-08-21T10:05:12.101Z,99543.59
2022-08-21T10:07:44.223Z,99543.67
2022-08-21T10:10:21.895Z,99541.73
2022-08-21T10:13:13.432Z,99545.04
2022-08-21T10:15:55.583Z,99547.35
2022-08-21T10:18:32.381Z,99545.79
2022-08-21T10:21:12.115Z,99548.09
2022-08-21T10:24:04.140Z,99552.86
2022-08-21T10:26:47.133Z,99548.15
2022-08-21T10:29:41.646Z,99550.90
2022-08-21T10:32:28.435Z,99550.20
2022-08-21T10:35:08.631Z,99544.84
2022-08-21T10:37:54.953Z,99546.88
2022-08-21T10:40:32.454Z,99543.79
2022-08-21T10:43:18.955Z,99544.89
2022-08-21T10:46:00.066Z,99548.70
2022-08-21T10:48:38.770Z,99545.91
2022-08-21T10:51:18.699Z,99546.77
2022-08-21T10:54:07.509Z,99549.79
2022-08-21T10:56:43.998Z,99547.73
2022-08-21T10:59:33.291Z,99544.93
2022-08-21T11:02:23.612Z,99544.10
2022-08-21T11:04:59.459Z,99539.94
2022-08-21T11:07:37.344Z,99545.19
2022-08-21T11:10:17.048Z,99540.02
2022-08-21T11:12:54.258Z,99534.73
2022-08-21T11:15:37.551Z,99537.58
2022-08-21T11:18:23.981Z,99533.25
2022-08-21T11:21:05.176Z,99536.35
2022-08-21T11:23:46.003Z,99533.16
2022-08-21T11:26:25.413Z,99531.80
2022-08-21T11:29:06.481Z,99532.52
2022-08-21T11:31:50.425Z,99528.86
2022-08-21T11:34:38.967Z,99526.04
2022-08-21T11:37:21.680Z,99526.83
2022-08-21T11:40:04.304Z,99526.05
2022-08-21T11:42:46.408Z,99524.96
2022-08-21T11:45:28.238Z,99523.30
2022-08-21T11:48:09.465Z,99524.54
2022-08-21T11:50:45.919Z,99524.94
2022-08-21T11:53:19.605Z,99524.33
2022-08-21T11:56:04.364Z,99524.96
2022-08-21T11:58:40.786Z,99519.25
2022-08-21T12:01:18.213Z,99518.36
2022-08-21T12:03:57.691Z,99521.20
2022-08-21T12:06:36.754Z,99521.59
2022-08-21T12:09:11.763Z,99515.84
2022-08-21T12:12:01.890Z,99517.29
2022-08-21T12:14:43.694Z,99512.16
2022-08-21T12:17:23.803Z,99512.09
2022-08-21T12:20:03.932Z,99511.05
2022-08-21T12:22:51.906Z,99508.52
2022-08-21T12:25:25.404Z,99503.25
2022-08-21T12:28:09.669Z,99504.27
2022-08-21T12:30:44.468Z,99508.45
2022-08-21T12:33:31.107Z,99505.42
2022-08-21T12:36:12.562Z,99509.75
2022-08-21T12:38:52.581Z,99511.29
2022-08-21T12:41:31.062Z,99508.56
2022-08-21T12:44:07.347Z,99507.36
2022-08-21T12:46:39.569Z,99510.36
2022-08-21T12:49:21.267Z,99509.88
2022-08-21T12:51:58.860Z,99508.52
2022-08-21T12:54:34.325Z,99510.41
2022-08-21T12:57:08.906Z,99502.88
2022-08-21T12:59:43.348Z,99506.64
2022-08-21T13:02:20.946Z,99505.81
2022-08-21T13:04:56.289Z,99506.23
2022-08-21T13:07:34.462Z,99508.64
2022-08-21T13:10:11.657Z,99509.16
2022-08-21T13:12:46.188Z,99506.16
2022-08-21T13:15:25.411Z,99508.45
2022-08-21T13:18:07.803Z,99507.73
2022-08-21T13:20:43.426Z,99511.34
2022-08-21T13:23:26.558Z,99507.04
2022-08-21T13:25:59.977Z,99513.04
2022-08-21T13:28:38.883Z,99511.95
2022-08-21T13:31:12.939Z,99504.84
2022-08-21T13:33:46.646Z,99507.94
2022-08-21T13:36:22.904Z,99504.46
2022-08-21T13:38:56.027Z,99505.41
2022-08-21T13:41:31.923Z,99505.73
2022-08-21T13:44:06.744Z,99504.63
2022-08-21T13:46:40.377Z,99505.88
2022-08-21T13:49:15.412Z,99504.20
2022-08-21T13:51:51.187Z,99512.73
2022-08-21T13:54:29.642Z,99512.54
2022-08-21T13:57:02.260Z,99513.24
2022-08-21T13:59:36.780Z,99513.81
2022-08-21T14:02:16.515Z,99514.84
2022-08-21T14:04:56.911Z,99516.31
2022-08-21T14:07:37.147Z,99513.84
2022-08-21T14:10:17.478Z,99512.86
2022-08-21T14:12:53.368Z,99512.36
2022-08-21T14:15:30.353Z,99513.54
2022-08-21T14:18:17.768Z,99513.64
2022-08-21T14:20:50.309Z,99514.98
2022-08-21T14:23:29.390Z,99516.77
2022-08-21T14:26:06.225Z,99512.98
2022-08-21T14:28:48.447Z,99517.71
2022-08-21T14:31:23.561Z,99517.67
2022-08-21T14:34:32.891Z,99518.88
2022-08-21T14:37:12.002Z,99512.77
2022-08-21T14:39:45.962Z,99522.50
2022-08-21T14:42:18.144Z,99520.30
2022-08-21T14:44:50.369Z,99515.86
2022-08-21T14:47:23.070Z,99512.80
2022-08-21T14:49:55.717Z,99508.05
2022-08-21T14:52:29.889Z,99505.39
2022-08-21T14:55:04.842Z,99502.77
2022-08-21T14:57:39.538Z,99503.05
2022-08-21T15:00:14.895Z,99502.38
2022-08-21T15:02:47.404Z,99502.06
2022-08-21T15:05:33.026Z,99499.39
2022-08-21T15:08:06.286Z,99494.23
2022-08-21T15:10:57.040Z,99497.01
2022-08-21T15:13:32.883Z,99494.67
2022-08-21T15:16:05.272Z,99495.84
2022-08-21T15:18:37.730Z,99497.17
2022-08-21T15:21:10.522Z,99497.27
2022-08-21T15:23:43.930Z,99497.80
2022-08-21T15:26:16.503Z,99498.06
2022-08-21T15:28:49.257Z,99498.65
2022-08-21T15:31:21.355Z,99494.29
2022-08-21T15:33:53.670Z,99495.86
2022-08-21T15:36:26.012Z,99493.45
2022-08-21T15:38:58.232Z,99497.56
2022-08-21T15:41:31.319Z,99495.87
2022-08-21T15:44:03.930Z,99494.67
2022-08-21T15:46:36.101Z,99497.23
2022-08-21T15:49:08.839Z,99497.21
2022-08-21T15:51:43.635Z,99501.04
2022-08-21T15:54:17.837Z,99502.06
2022-08-21T15:56:52.932Z,99504.06
2022-08-21T15:59:26.319Z,99507.30
2022-08-21T16:01:59.399Z,99511.61
2022-08-21T16:04:32.038Z,99512.33
2022-08-21T16:07:09.538Z,99516.77
2022-08-21T16:09:44.753Z,99520.20
2022-08-21T16:12:23.944Z,99520.57
2022-08-21T16:14:57.093Z,99523.33
2022-08-21T16:17:33.482Z,99525.23
2022-08-21T16:20:09.665Z,99529.81
2022-08-21T16:22:44.630Z,99527.70
2022-08-21T16:25:18.490Z,99526.54
2022-08-21T16:28:05.089Z,99530.05
2022-08-21T16:30:48.277Z,99534.30
2022-08-21T16:33:26.487Z,99537.83
2022-08-21T16:35:58.583Z,99538.64
2022-08-21T16:38:32.769Z,99539.69
2022-08-21T16:41:13.148Z,99541.92
2022-08-21T16:43:46.486Z,99546.89
2022-08-21T16:46:19.261Z,99550.91
2022-08-21T16:48:55.555Z,99554.42
2022-08-21T16:51:27.571Z,99562.40
2022-08-21T16:54:00.189Z,99562.80
2022-08-21T16:56:33.264Z,99563.67
2022-08-21T16:59:06.082Z,99566.33
2022-08-21T17:01:38.431Z,99566.59
2022-08-21T17:04:11.058Z,99570.04
2022-08-21T17:06:44.181Z,99574.60
2022-08-21T17:09:16.772Z,99573.63
2022-08-21T17:11:50.795Z,99571.16
2022-08-21T17:14:24.949Z,99575.39
2022-08-21T17:16:58.283Z,99580.27
2022-08-21T17:19:30.375Z,99573.86
2022-08-21T17:22:14.160Z,99570.89
2022-08-21T17:24:46.423Z,99569.77
2022-08-21T17:27:19.534Z,99565.52
2022-08-21T17:29:56.249Z,99572.45
2022-08-21T17:32:28.539Z,99576.45
2022-08-21T17:35:00.657Z,99576.70
2022-08-21T17:37:32.769Z,99580.91
2022-08-21T17:40:06.832Z,99583.73
2022-08-21T17:42:39.202Z,99584.27
2022-08-21T17:45:14.318Z,99587.46
2022-08-21T17:47:47.525Z,99581.98
2022-08-21T17:50:22.579Z,99584.75
2022-08-21T17:52:55.402Z,99585.29
2022-08-21T17:55:28.328Z,99587.59
2022-08-21T17:58:02.354Z,99588.08
2022-08-21T18:00:35.540Z,99590.75
2022-08-21T18:03:14.785Z,99592.20
2022-08-21T18:05:48.862Z,99594.12
2022-08-21T18:08:21.574Z,99595.52
2022-08-21T18:10:54.164Z,99597.07
2022-08-21T18:13:35.335Z,99599.94
2022-08-21T18:16:08.927Z,99599.27
2022-08-21T18:18:44.945Z,99605.73
2022-08-21T18:21:17.681Z,99608.27
2022-08-21T18:23:50.236Z,99610.90
2022-08-21T18:26:29.667Z,99607.05
2022-08-21T18:29:03.717Z,99606.62
2022-08-21T18:31:39.326Z,99607.91
2022-08-21T18:34:20.470Z,99609.72
2022-08-21T18:36:53.586Z,99613.60
2022-08-21T18:39:36.531Z,99614.86
2022-08-21T18:42:13.819Z,99610.85
2022-08-21T18:44:45.602Z,99613.59
2022-08-21T18:47:22.576Z,99617.06
2022-08-21T18:49:54.775Z,99614.58
2022-08-21T18:55:21.323Z,99614.27
2022-08-21T18:57:53.737Z,99616.20
2022-08-21T19:00:28.980Z,99620.31
2022-08-21T19:03:02.016Z,99620.19
2022-08-21T19:05:39.947Z,99616.90
2022-08-21T19:08:13.878Z,99622.16
2022-08-21T19:10:48.166Z,99623.04
2022-08-21T19:13:23.097Z,99625.08
2022-08-21T19:15:56.745Z,99625.69
2022-08-21T19:18:30.957Z,99629.20
2022-08-21T19:21:03.418Z,99630.19
2022-08-21T19:23:35.634Z,99627.94
2022-08-21T19:26:10.880Z,99626.36
2022-08-21T19:28:46.183Z,99624.36
2022-08-21T19:31:23.551Z,99623.80
2022-08-21T19:34:01.628Z,99628.36
2022-08-21T19:36:34.423Z,99629.30
2022-08-21T19:39:08.393Z,99626.42
2022-08-21T19:41:45.490Z,99629.23
2022-08-21T19:44:20.989Z,99629.13
2022-08-21T19:46:54.992Z,99633.20
2022-08-21T19:49:33.396Z,99635.72
2022-08-21T19:52:12.951Z,99640.51
2022-08-21T19:54:46.580Z,99638.89
2022-08-21T19:57:19.763Z,99637.66
2022-08-21T19:59:53.281Z,99634.05
2022-08-21T20:02:27.343Z,99636.95
2022-08-21T20:04:59.379Z,99635.86
2022-08-21T20:07:32.123Z,99636.81
2022-08-21T20:10:04.630Z,99640.50
2022-08-21T20:12:37.449Z,99636.65
2022-08-21T20:15:11.738Z,99637.80
2022-08-21T20:17:43.814Z,99636.68
2022-08-21T20:20:15.889Z,99637.20
2022-08-21T20:22:48.467Z,99636.17
2022-08-21T20:25:21.267Z,99636.17
2022-08-21T20:27:53.585Z,99636.01
2022-08-21T20:30:25.890Z,99634.70
2022-08-21T20:32:58.042Z,99638.14
2022-08-21T20:35:30.276Z,99634.17
2022-08-21T20:38:02.341Z,99635.88
2022-08-21T20:40:37.701Z,99636.41
2022-08-21T20:43:12.834Z,99634.49
2022-08-21T20:45:45.683Z,99637.34
2022-08-21T20:48:23.618Z,99639.49
2022-08-21T20:51:02.004Z,99643.36
2022-08-21T20:53:43.851Z,99638.44
2022-08-21T20:56:21.418Z,99637.95
2022-08-21T20:59:03.175Z,99636.92
2022-08-21T21:01:36.764Z,99637.45
2022-08-21T21:04:20.811Z,99636.23
2022-08-21T21:06:58.985Z,99636.79
2022-08-21T21:09:40.343Z,99637.65
2022-08-21T21:12:18.274Z,99635.42
2022-08-21T21:15:05.434Z,99638.61
2022-08-21T21:17:43.652Z,99636.52
2022-08-21T21:20:25.016Z,99638.80
2022-08-21T21:23:05.504Z,99634.58
2022-08-21T21:25:46.903Z,99633.55
2022-08-21T21:28:36.351Z,99632.68
2022-08-21T21:31:08.840Z,99638.77
2022-08-21T21:33:40.943Z,99635.64
2022-08-21T21:36:20.720Z,99636.84
2022-08-21T21:39:08.550Z,99635.16
2022-08-21T21:41:54.404Z,99640.88
2022-08-21T21:44:57.077Z,99637.61
2022-08-21T21:47:40.695Z,99633.77
2022-08-21T21:50:27.980Z,99638.08
2022-08-21T21:56:10.103Z,99633.91
2022-08-21T21:59:02.333Z,99633.83
2022-08-21T22:01:47.945Z,99629.45
2022-08-21T22:04:28.722Z,99629.41
2022-08-21T22:07:11.236Z,99632.38
2022-08-21T22:09:48.080Z,99633.89
2022-08-21T22:12:32.149Z,99637.81
2022-08-21T22:15:04.869Z,99639.41
2022-08-21T22:17:45.733Z,99638.02
2022-08-21T22:20:25.103Z,99638.75
2022-08-21T22:22:58.827Z,99639.77
2022-08-21T22:25:35.722Z,99642.67
2022-08-21T22:28:12.550Z,99638.03
2022-08-21T22:30:49.898Z,99638.02
2022-08-21T22:33:25.770Z,99634.40
2022-08-21T22:36:00.349Z,99631.14
2022-08-21T22:38:37.137Z,99633.60
2022-08-21T22:41:19.220Z,99630.73
2022-08-21T22:43:56.913Z,99632.71
2022-08-21T22:46:32.817Z,99631.76
2022-08-21T22:49:10.134Z,99627.77
2022-08-21T22:51:45.895Z,99628.54
2022-08-21T22:54:31.671Z,99631.13
2022-08-21T22:57:07.630Z,99630.86
2022-08-21T22:59:53.447Z,99628.40
2022-08-21T23:02:34.332Z,99630.83
2022-08-21T23:05:18.427Z,99631.80
2022-08-21T23:07:51.585Z,99632.47
2022-08-21T23:10:29.483Z,99632.22
2022-08-21T23:19:10.915Z,99644.76
2022-08-21T23:21:57.817Z,99646.38
2022-08-21T23:24:50.250Z,99642.91
2022-08-21T23:27:35.725Z,99643.30
2022-08-21T23:30:12.758Z,99638.92
2022-08-21T23:33:19.193Z,99640.85
2022-08-21T23:36:23.147Z,99641.41
2022-08-21T23:39:15.384Z,99642.36
2022-08-21T23:41:57.726Z,99644.52
2022-08-21T23:44:45.932Z,99649.45
2022-08-21T23:47:34.088Z,99653.20
2022-08-21T23:53:16.502Z,99652.02
2022-08-21T23:56:02.095Z,99653.52
2022-08-21T23:58:53.505Z,99654.02
